createdAt,value
2018-07-25T00:02:14.499Z,97.80
2018-07-25T00:04:43.639Z,98.00
2018-07-25T00:07:12.480Z,97.90
2018-07-25T00:09:41.539Z,97.90
2018-07-25T00:12:10.472Z,98.10
2018-07-25T00:14:39.269Z,98.40
2018-07-25T00:17:08.123Z,98.80
2018-07-25T00:19:36.906Z,99.00
2018-07-25T00:22:05.843Z,99.20
2018-07-25T00:24:34.686Z,99.30
2018-07-25T00:27:03.529Z,99.20
2018-07-25T00:29:32.333Z,99.30
2018-07-25T00:32:01.150Z,99.40
2018-07-25T00:34:30.327Z,99.40
2018-07-25T00:36:59.106Z,99.30
2018-07-25T00:39:27.964Z,99.10
2018-07-25T00:41:56.881Z,99.30
2018-07-25T00:44:26.199Z,99.30
2018-07-25T00:46:55.046Z,99.30
2018-07-25T00:49:23.859Z,99.40
2018-07-25T00:51:52.687Z,99.60
2018-07-25T00:54:31.003Z,99.90
2018-07-25T00:56:59.846Z,99.90
2018-07-25T00:59:28.694Z,99.80
2018-07-25T01:01:57.493Z,99.70
2018-07-25T01:04:31.382Z,99.90
2018-07-25T01:07:00.285Z,99.90
2018-07-25T01:09:29.132Z,99.90
2018-07-25T01:11:58.181Z,99.90
2018-07-25T01:14:27.077Z,99.90
2018-07-25T01:16:55.874Z,99.90
2018-07-25T01:19:24.728Z,99.90
2018-07-25T01:21:53.564Z,99.90
2018-07-25T01:24:22.350Z,99.90
2018-07-25T01:26:51.177Z,99.90
2018-07-25T01:29:20.013Z,99.90
2018-07-25T01:31:48.885Z,99.90
2018-07-25T01:34:17.802Z,99.90
2018-07-25T01:36:46.647Z,99.90
2018-07-25T01:39:15.650Z,99.90
2018-07-25T01:41:44.864Z,99.90
2018-07-25T01:44:13.756Z,99.90
2018-07-25T01:46:42.572Z,99.90
2018-07-25T01:49:11.390Z,99.90
2018-07-25T01:51:40.305Z,99.90
2018-07-25T01:54:09.395Z,99.90
2018-07-25T01:56:38.274Z,99.90
2018-07-25T01:59:07.125Z,99.90
2018-07-25T02:01:36.779Z,99.90
2018-07-25T02:04:05.735Z,99.90
2018-07-25T02:06:34.564Z,99.90
2018-07-25T02:09:03.513Z,99.90
2018-07-25T02:11:32.332Z,99.90
2018-07-25T02:14:01.154Z,99.90
2018-07-25T02:16:30.004Z,99.90
2018-07-25T02:18:58.807Z,99.90
2018-07-25T02:21:27.768Z,99.90
2018-07-25T02:23:56.722Z,99.90
2018-07-25T02:26:25.494Z,99.90
2018-07-25T02:28:54.315Z,99.90
2018-07-25T02:31:23.116Z,99.90
2018-07-25T02:33:57.050Z,99.90
2018-07-25T02:36:25.940Z,99.90
2018-07-25T02:38:54.731Z,99.90
2018-07-25T02:41:23.580Z,99.90
2018-07-25T02:43:52.589Z,99.90
2018-07-25T02:46:21.346Z,99.90
2018-07-25T02:48:50.187Z,99.90
2018-07-25T02:51:19.071Z,99.90
2018-07-25T02:53:47.909Z,99.90
2018-07-25T02:56:16.707Z,99.90
2018-07-25T02:58:45.554Z,99.90
2018-07-25T03:01:14.335Z,99.90
2018-07-25T03:03:43.161Z,99.90
2018-07-25T03:06:12.031Z,99.90
2018-07-25T03:08:40.886Z,99.90
2018-07-25T03:11:09.678Z,99.90
2018-07-25T03:13:38.517Z,99.90
2018-07-25T03:16:08.420Z,99.90
2018-07-25T03:18:37.369Z,99.90
2018-07-25T03:21:06.154Z,99.90
2018-07-25T03:23:35.953Z,99.90
2018-07-25T03:26:04.901Z,99.90
2018-07-25T03:28:33.762Z,99.90
2018-07-25T03:31:02.627Z,99.90
2018-07-25T03:33:31.439Z,99.90
2018-07-25T03:36:00.625Z,99.90
2018-07-25T03:38:29.783Z,99.90
2018-07-25T03:40:58.652Z,99.90
2018-07-25T03:43:27.530Z,99.90
2018-07-25T03:46:01.485Z,99.90
2018-07-25T03:48:30.298Z,99.90
2018-07-25T03:50:59.090Z,99.90
2018-07-25T03:53:27.965Z,99.90
2018-07-25T03:56:02.026Z,99.90
2018-07-25T03:58:30.895Z,99.90
2018-07-25T04:00:59.721Z,99.90
2018-07-25T04:03:28.690Z,99.90
2018-07-25T04:05:57.493Z,99.90
2018-07-25T04:08:26.326Z,99.90
2018-07-25T04:10:55.115Z,99.90
2018-07-25T04:13:24.295Z,99.90
2018-07-25T04:15:53.446Z,99.90
2018-07-25T04:18:22.631Z,99.90
2018-07-25T04:20:51.715Z,99.90
2018-07-25T04:23:20.639Z,99.90
2018-07-25T04:25:49.626Z,99.90
2018-07-25T04:28:18.672Z,99.90
2018-07-25T04:30:47.473Z,99.90
2018-07-25T04:33:16.299Z,99.90
2018-07-25T04:35:45.271Z,99.90
2018-07-25T04:38:14.097Z,99.90
2018-07-25T04:40:42.918Z,99.90
2018-07-25T04:43:11.739Z,99.90
2018-07-25T04:45:40.596Z,99.90
2018-07-25T04:48:09.445Z,99.90
2018-07-25T04:50:38.257Z,99.90
2018-07-25T04:53:07.223Z,99.90
2018-07-25T04:55:41.178Z,99.90
2018-07-25T04:58:10.033Z,99.90
2018-07-25T05:00:38.814Z,99.90
2018-07-25T05:03:07.590Z,99.90
2018-07-25T05:05:41.470Z,99.90
2018-07-25T05:08:10.242Z,99.90
2018-07-25T05:10:39.060Z,99.90
2018-07-25T05:13:07.854Z,99.90
2018-07-25T05:15:36.648Z,99.90
2018-07-25T05:18:05.508Z,99.90
2018-07-25T05:20:34.317Z,99.90
2018-07-25T05:23:03.178Z,99.90
2018-07-25T05:25:37.100Z,99.90
2018-07-25T05:28:05.976Z,99.90
2018-07-25T05:30:35.132Z,99.90
2018-07-25T05:33:04.082Z,99.90
2018-07-25T05:35:33.110Z,99.90
2018-07-25T05:38:01.957Z,99.90
2018-07-25T05:40:30.743Z,99.90
2018-07-25T05:42:59.578Z,99.90
2018-07-25T05:45:28.446Z,99.90
2018-07-25T05:47:57.240Z,99.90
2018-07-25T05:50:26.111Z,99.90
2018-07-25T05:52:54.907Z,99.90
2018-07-25T05:55:23.758Z,99.90
2018-07-25T05:57:52.607Z,99.90
2018-07-25T06:00:21.472Z,99.90
2018-07-25T06:02:50.316Z,99.90
2018-07-25T06:05:24.446Z,99.90
2018-07-25T06:07:53.282Z,99.90
2018-07-25T06:10:22.092Z,99.90
2018-07-25T06:12:51.036Z,99.90
2018-07-25T06:15:25.362Z,99.90
2018-07-25T06:17:54.192Z,99.90
2018-07-25T06:20:22.989Z,99.90
2018-07-25T06:22:51.778Z,99.90
2018-07-25T06:25:20.615Z,99.90
2018-07-25T06:27:49.375Z,99.90
2018-07-25T06:30:18.157Z,99.90
2018-07-25T06:32:47.162Z,99.90
2018-07-25T06:35:21.267Z,99.90
2018-07-25T06:37:50.309Z,99.90
2018-07-25T06:40:19.095Z,99.90
2018-07-25T06:42:47.910Z,99.90
2018-07-25T06:45:16.801Z,99.90
2018-07-25T06:47:45.672Z,99.90
2018-07-25T06:50:14.438Z,99.90
2018-07-25T06:52:43.257Z,99.90
2018-07-25T06:55:12.102Z,99.90
2018-07-25T06:57:40.901Z,99.90
2018-07-25T07:00:09.778Z,99.90
2018-07-25T07:02:38.614Z,99.90
2018-07-25T07:05:07.451Z,99.90
2018-07-25T07:07:36.262Z,99.90
2018-07-25T07:10:05.523Z,99.90
2018-07-25T07:12:34.326Z,99.90
2018-07-25T07:15:03.254Z,99.90
2018-07-25T07:17:32.436Z,99.90
2018-07-25T07:20:01.254Z,99.90
2018-07-25T07:22:30.129Z,99.90
2018-07-25T07:24:59.209Z,99.90
2018-07-25T07:27:28.028Z,99.90
2018-07-25T07:29:56.839Z,99.90
2018-07-25T07:32:25.879Z,99.90
2018-07-25T07:34:54.872Z,99.90
2018-07-25T07:37:23.726Z,99.90
2018-07-25T07:39:52.548Z,99.90
2018-07-25T07:42:21.379Z,99.90
2018-07-25T07:44:50.412Z,99.90
2018-07-25T07:47:19.213Z,99.90
2018-07-25T07:49:48.066Z,99.90
2018-07-25T07:52:16.967Z,99.90
2018-07-25T07:54:50.814Z,99.90
2018-07-25T07:57:19.668Z,99.90
2018-07-25T07:59:48.501Z,99.90
2018-07-25T08:02:17.361Z,99.90
2018-07-25T08:04:51.367Z,99.90
2018-07-25T08:07:20.588Z,99.90
2018-07-25T08:09:49.456Z,99.90
2018-07-25T08:12:18.353Z,99.90
2018-07-25T08:14:47.268Z,99.90
2018-07-25T08:17:16.053Z,99.90
2018-07-25T08:19:44.952Z,99.90
2018-07-25T08:22:13.753Z,99.90
2018-07-25T08:24:47.599Z,99.90
2018-07-25T08:27:16.413Z,99.90
2018-07-25T08:29:45.639Z,99.90
2018-07-25T08:32:15.705Z,99.90
2018-07-25T08:34:44.759Z,99.90
2018-07-25T08:37:13.555Z,99.90
2018-07-25T08:39:42.372Z,99.90
2018-07-25T08:42:11.194Z,98.40
2018-07-25T08:44:40.037Z,97.50
2018-07-25T08:47:08.874Z,97.40
2018-07-25T08:49:37.769Z,97.30
2018-07-25T08:52:06.643Z,97.00
2018-07-25T08:54:36.551Z,96.80
2018-07-25T08:57:05.331Z,98.30
2018-07-25T08:59:34.149Z,98.20
2018-07-25T09:02:02.976Z,98.70
2018-07-25T09:04:32.137Z,98.50
2018-07-25T09:07:00.948Z,98.90
2018-07-25T09:09:29.903Z,98.60
2018-07-25T09:11:58.724Z,98.00
2018-07-25T09:14:27.878Z,97.90
2018-07-25T09:16:56.755Z,97.20
2018-07-25T09:19:25.601Z,96.90
2018-07-25T09:21:54.517Z,97.20
2018-07-25T09:24:23.442Z,98.00
2018-07-25T09:26:52.299Z,98.70
2018-07-25T09:29:21.099Z,98.80
2018-07-25T09:31:50.015Z,98.90
2018-07-25T09:34:18.953Z,98.10
2018-07-25T09:36:47.716Z,98.40
2018-07-25T09:39:16.762Z,98.20
2018-07-25T09:41:46.914Z,97.40
2018-07-25T09:44:17.231Z,97.30
2018-07-25T09:46:46.127Z,96.30
2018-07-25T09:49:14.943Z,95.80
2018-07-25T09:51:43.777Z,94.60
2018-07-25T09:54:12.911Z,94.10
2018-07-25T09:56:42.273Z,94.10
2018-07-25T09:59:11.285Z,92.80
2018-07-25T10:01:40.077Z,92.40
2018-07-25T10:04:08.867Z,92.90
2018-07-25T10:06:37.722Z,90.80
2018-07-25T10:09:09.647Z,90.20
2018-07-25T10:11:38.638Z,90.10
2018-07-25T10:14:07.465Z,89.70
2018-07-25T10:16:36.267Z,88.80
2018-07-25T10:19:05.175Z,87.60
2018-07-25T10:21:34.018Z,85.90
2018-07-25T10:24:02.838Z,86.60
2018-07-25T10:26:31.680Z,86.40
2018-07-25T10:29:00.446Z,85.90
2018-07-25T10:31:36.640Z,85.40
2018-07-25T10:34:05.435Z,84.90
2018-07-25T10:36:34.259Z,85.60
2018-07-25T10:39:04.427Z,83.10
2018-07-25T10:41:33.255Z,83.20
2018-07-25T10:44:02.122Z,80.70
2018-07-25T10:46:30.927Z,80.80
2018-07-25T10:48:59.785Z,82.60
2018-07-25T10:51:28.682Z,81.80
2018-07-25T10:53:57.542Z,80.80
2018-07-25T10:56:26.339Z,79.70
2018-07-25T10:58:55.163Z,79.60
2018-07-25T11:01:23.954Z,77.80
2018-07-25T11:03:52.815Z,78.10
2018-07-25T11:06:21.921Z,78.90
2018-07-25T11:08:50.755Z,76.80
2018-07-25T11:11:19.582Z,76.50
2018-07-25T11:13:48.351Z,75.80
2018-07-25T11:16:17.281Z,75.70
2018-07-25T11:18:46.920Z,75.20
2018-07-25T11:21:15.706Z,75.80
2018-07-25T11:23:44.557Z,76.40
2018-07-25T11:26:13.348Z,76.60
2018-07-25T11:28:42.189Z,76.60
2018-07-25T11:31:10.978Z,75.50
2018-07-25T11:33:39.766Z,75.40
2018-07-25T11:36:08.927Z,75.90
2018-07-25T11:38:37.825Z,75.90
2018-07-25T11:41:07.303Z,76.60
2018-07-25T11:43:36.123Z,75.30
2018-07-25T11:46:05.319Z,71.80
2018-07-25T11:48:34.360Z,70.50
2018-07-25T11:51:03.184Z,72.80
2018-07-25T11:53:31.977Z,70.90
2018-07-25T11:56:00.848Z,66.20
2018-07-25T11:58:29.709Z,62.80
2018-07-25T12:00:58.591Z,62.60
2018-07-25T12:03:27.419Z,61.90
2018-07-25T12:05:56.181Z,66.10
2018-07-25T12:08:25.049Z,64.20
2018-07-25T12:10:53.906Z,63.90
2018-07-25T12:13:22.755Z,64.50
2018-07-25T12:15:51.560Z,67.40
2018-07-25T12:18:20.367Z,69.40
2018-07-25T12:20:49.187Z,69.20
2018-07-25T12:23:18.078Z,66.10
2018-07-25T12:25:47.191Z,68.60
2018-07-25T12:28:16.022Z,70.00
2018-07-25T12:30:45.194Z,69.40
2018-07-25T12:33:14.045Z,63.60
2018-07-25T12:35:48.075Z,64.30
2018-07-25T12:38:16.910Z,64.70
2018-07-25T12:40:45.777Z,62.10
2018-07-25T12:43:14.612Z,61.40
2018-07-25T12:45:43.422Z,61.20
2018-07-25T12:48:12.216Z,61.30
2018-07-25T12:50:41.031Z,59.70
2018-07-25T12:53:09.850Z,58.10
2018-07-25T12:55:38.673Z,58.40
2018-07-25T12:58:07.494Z,60.10
2018-07-25T13:00:36.331Z,58.60
2018-07-25T13:03:05.630Z,57.20
2018-07-25T13:05:34.478Z,57.20
2018-07-25T13:08:03.300Z,56.70
2018-07-25T13:10:32.322Z,57.20
2018-07-25T13:13:01.093Z,57.20
2018-07-25T13:15:30.156Z,55.60
2018-07-25T13:17:58.955Z,56.00
2018-07-25T13:20:27.838Z,56.20
2018-07-25T13:22:56.709Z,56.40
2018-07-25T13:25:25.765Z,56.50
2018-07-25T13:27:54.704Z,55.60
2018-07-25T13:30:23.510Z,55.20
2018-07-25T13:32:52.318Z,55.10
2018-07-25T13:35:21.103Z,54.60
2018-07-25T13:37:50.021Z,54.90
2018-07-25T13:40:18.769Z,56.00
2018-07-25T13:42:47.542Z,56.40
2018-07-25T13:45:16.476Z,56.60
2018-07-25T13:47:45.305Z,55.90
2018-07-25T13:50:14.063Z,55.80
2018-07-25T13:52:42.850Z,55.60
2018-07-25T13:55:11.866Z,56.10
2018-07-25T13:57:40.686Z,55.70
2018-07-25T14:00:10.936Z,56.00
2018-07-25T14:02:39.760Z,57.00
2018-07-25T14:05:08.757Z,56.30
2018-07-25T14:07:37.518Z,55.40
2018-07-25T14:10:06.667Z,54.90
2018-07-25T14:12:35.538Z,54.80
2018-07-25T14:15:04.379Z,55.00
2018-07-25T14:17:33.271Z,54.20
2018-07-25T14:20:02.164Z,54.70
2018-07-25T14:22:30.992Z,55.10
2018-07-25T14:24:59.763Z,55.30
2018-07-25T14:27:28.546Z,55.10
2018-07-25T14:29:57.370Z,54.40
2018-07-25T14:32:26.196Z,53.60
2018-07-25T14:35:00.010Z,53.70
2018-07-25T14:37:28.815Z,53.50
2018-07-25T14:39:57.714Z,53.40
2018-07-25T14:42:26.370Z,53.00
2018-07-25T14:44:55.358Z,53.00
2018-07-25T14:47:24.165Z,53.70
2018-07-25T14:49:52.956Z,54.10
2018-07-25T14:52:21.829Z,53.50
2018-07-25T14:54:50.622Z,54.10
2018-07-25T14:57:19.473Z,53.10
2018-07-25T14:59:48.334Z,53.80
2018-07-25T15:02:17.132Z,54.20
2018-07-25T15:04:46.140Z,53.90
2018-07-25T15:07:15.007Z,54.00
2018-07-25T15:09:43.798Z,54.00
2018-07-25T15:12:12.675Z,53.30
2018-07-25T15:14:41.718Z,52.80
2018-07-25T15:17:10.491Z,53.80
2018-07-25T15:19:39.327Z,54.60
2018-07-25T15:22:08.136Z,54.50
2018-07-25T15:24:37.162Z,53.30
2018-07-25T15:27:05.971Z,54.30
2018-07-25T15:29:34.775Z,53.50
2018-07-25T15:32:03.732Z,53.10
2018-07-25T15:34:32.550Z,53.30
2018-07-25T15:37:01.431Z,53.00
2018-07-25T15:39:30.277Z,53.00
2018-07-25T15:41:59.441Z,52.20
2018-07-25T15:44:28.483Z,53.10
2018-07-25T15:46:57.376Z,53.10
2018-07-25T15:49:26.164Z,53.60
2018-07-25T15:51:54.918Z,53.50
2018-07-25T15:54:29.014Z,52.70
2018-07-25T15:56:57.820Z,54.60
2018-07-25T15:59:26.621Z,53.40
2018-07-25T16:01:55.600Z,53.20
2018-07-25T16:04:24.691Z,53.00
2018-07-25T16:06:53.466Z,52.00
2018-07-25T16:09:22.313Z,53.20
2018-07-25T16:11:51.664Z,53.00
2018-07-25T16:14:20.450Z,52.50
2018-07-25T16:16:49.276Z,52.80
2018-07-25T16:19:18.101Z,53.10
2018-07-25T16:21:46.927Z,52.70
2018-07-25T16:24:15.727Z,53.00
2018-07-25T16:26:44.526Z,53.50
2018-07-25T16:29:13.367Z,52.50
2018-07-25T16:31:42.175Z,54.20
2018-07-25T16:34:11.014Z,55.50
2018-07-25T16:36:39.880Z,55.60
2018-07-25T16:39:13.624Z,54.80
2018-07-25T16:41:42.453Z,56.70
2018-07-25T16:44:11.408Z,57.00
2018-07-25T16:46:40.273Z,57.10
2018-07-25T16:49:09.067Z,56.80
2018-07-25T16:51:37.952Z,57.90
2018-07-25T16:54:07.286Z,58.30
2018-07-25T16:56:36.134Z,58.80
2018-07-25T16:59:04.889Z,57.60
2018-07-25T17:01:33.714Z,58.20
2018-07-25T17:04:02.588Z,58.80
2018-07-25T17:06:31.618Z,58.40
2018-07-25T17:09:00.454Z,59.40
2018-07-25T17:11:29.290Z,59.90
2018-07-25T17:13:58.091Z,59.50
2018-07-25T17:16:27.002Z,59.60
2018-07-25T17:18:55.764Z,59.60
2018-07-25T17:21:24.583Z,61.80
2018-07-25T17:23:53.407Z,65.10
2018-07-25T17:26:22.315Z,65.10
2018-07-25T17:28:51.127Z,66.80
2018-07-25T17:31:19.972Z,66.10
2018-07-25T17:33:48.745Z,65.10
2018-07-25T17:36:17.586Z,67.60
2018-07-25T17:38:46.390Z,68.30
2018-07-25T17:41:15.219Z,68.40
2018-07-25T17:43:44.067Z,68.70
2018-07-25T17:46:12.867Z,69.30
2018-07-25T17:48:41.695Z,69.10
2018-07-25T17:51:10.463Z,68.50
2018-07-25T17:53:39.279Z,67.50
2018-07-25T17:56:08.388Z,70.50
2018-07-25T17:58:37.171Z,70.30
2018-07-25T18:01:06.026Z,68.90
2018-07-25T18:03:34.835Z,69.60
2018-07-25T18:06:03.781Z,71.10
2018-07-25T18:08:32.573Z,70.80
2018-07-25T18:11:01.358Z,69.00
2018-07-25T18:13:35.398Z,70.80
2018-07-25T18:16:09.552Z,71.60
2018-07-25T18:18:38.407Z,70.80
2018-07-25T18:21:07.351Z,71.80
2018-07-25T18:23:36.110Z,71.70
2018-07-25T18:26:05.210Z,72.00
2018-07-25T18:28:34.076Z,71.80
2018-07-25T18:31:02.968Z,73.50
2018-07-25T18:33:31.777Z,73.70
2018-07-25T18:36:05.814Z,73.70
2018-07-25T18:38:34.656Z,72.90
2018-07-25T18:41:03.528Z,72.80
2018-07-25T18:43:32.331Z,73.40
2018-07-25T18:46:01.137Z,74.10
2018-07-25T18:48:29.937Z,74.00
2018-07-25T18:50:58.723Z,74.80
2018-07-25T18:53:27.575Z,75.40
2018-07-25T18:55:56.374Z,75.10
2018-07-25T18:58:25.186Z,75.90
2018-07-25T19:00:54.036Z,74.70
2018-07-25T19:03:22.867Z,74.30
2018-07-25T19:05:51.880Z,72.80
2018-07-25T19:08:20.650Z,72.50
2018-07-25T19:10:49.444Z,72.50
2018-07-25T19:13:23.261Z,72.30
2018-07-25T19:15:52.201Z,73.80
2018-07-25T19:18:21.138Z,73.70
2018-07-25T19:20:50.016Z,73.60
2018-07-25T19:23:18.832Z,72.90
2018-07-25T19:25:47.699Z,73.80
2018-07-25T19:28:16.528Z,76.10
2018-07-25T19:30:45.570Z,77.00
2018-07-25T19:33:14.483Z,79.60
2018-07-25T19:35:43.511Z,82.10
2018-07-25T19:38:12.352Z,82.30
2018-07-25T19:40:41.319Z,82.40
2018-07-25T19:43:10.220Z,84.00
2018-07-25T19:45:39.208Z,85.20
2018-07-25T19:48:07.994Z,86.20
2018-07-25T19:50:36.828Z,86.70
2018-07-25T19:53:05.651Z,84.40
2018-07-25T19:55:34.477Z,83.70
2018-07-25T19:58:03.349Z,82.40
2018-07-25T20:00:32.241Z,81.80
2018-07-25T20:03:01.108Z,82.10
2018-07-25T20:05:29.942Z,82.00
2018-07-25T20:07:58.829Z,81.90
2018-07-25T20:10:27.788Z,82.10
2018-07-25T20:12:56.868Z,82.20
2018-07-25T20:15:30.929Z,82.00
2018-07-25T20:17:59.887Z,81.80
2018-07-25T20:20:28.904Z,81.70
2018-07-25T20:22:57.770Z,82.80
2018-07-25T20:25:26.688Z,84.10
2018-07-25T20:27:55.541Z,84.50
2018-07-25T20:30:24.372Z,84.00
2018-07-25T20:32:53.209Z,84.00
2018-07-25T20:35:22.431Z,84.00
2018-07-25T20:37:51.245Z,83.90
2018-07-25T20:40:20.200Z,84.30
2018-07-25T20:42:49.074Z,84.60
2018-07-25T20:45:17.946Z,85.00
2018-07-25T20:47:46.965Z,86.40
2018-07-25T20:50:15.982Z,87.90
2018-07-25T20:52:44.906Z,89.10
2018-07-25T20:55:13.733Z,89.10
2018-07-25T20:57:42.578Z,89.20
2018-07-25T21:00:11.647Z,89.90
2018-07-25T21:02:40.443Z,89.90
2018-07-25T21:05:09.422Z,89.60
2018-07-25T21:07:38.292Z,88.80
2018-07-25T21:10:07.107Z,88.20
2018-07-25T21:12:35.977Z,88.30
2018-07-25T21:15:05.064Z,88.20
2018-07-25T21:17:33.935Z,88.50
2018-07-25T21:20:02.801Z,88.90
2018-07-25T21:22:31.619Z,89.20
2018-07-25T21:25:00.618Z,89.40
2018-07-25T21:27:29.408Z,88.80
2018-07-25T21:29:58.250Z,88.50
2018-07-25T21:32:27.083Z,88.80
2018-07-25T21:34:55.870Z,89.40
2018-07-25T21:37:24.745Z,90.20
2018-07-25T21:39:53.651Z,90.30
2018-07-25T21:42:22.809Z,89.00
2018-07-25T21:44:56.967Z,89.30
2018-07-25T21:47:25.760Z,88.90
2018-07-25T21:49:54.556Z,89.50
2018-07-25T21:52:23.348Z,89.30
2018-07-25T21:54:52.247Z,89.70
2018-07-25T21:57:21.089Z,90.20
2018-07-25T21:59:49.872Z,90.90
2018-07-25T22:02:18.912Z,90.70
2018-07-25T22:04:47.892Z,91.00
2018-07-25T22:07:16.739Z,90.80
2018-07-25T22:09:45.571Z,90.80
2018-07-25T22:12:14.389Z,90.90
2018-07-25T22:14:43.440Z,91.00
2018-07-25T22:17:12.259Z,90.70
2018-07-25T22:19:41.310Z,90.70
2018-07-25T22:22:10.112Z,90.90
2018-07-25T22:24:39.244Z,90.70
2018-07-25T22:27:08.094Z,90.80
2018-07-25T22:29:36.987Z,90.80
2018-07-25T22:32:05.918Z,90.80
2018-07-25T22:34:34.862Z,90.80
2018-07-25T22:37:03.678Z,90.80
2018-07-25T22:39:32.587Z,91.10
2018-07-25T22:42:01.410Z,91.00
2018-07-25T22:44:30.282Z,91.00
2018-07-25T22:46:59.105Z,90.90
2018-07-25T22:49:28.002Z,90.90
2018-07-25T22:51:56.834Z,91.00
2018-07-25T22:54:25.717Z,91.00
2018-07-25T22:56:54.485Z,91.00
2018-07-25T22:59:23.313Z,91.00
2018-07-25T23:01:52.406Z,91.20
2018-07-25T23:04:21.275Z,91.20
2018-07-25T23:06:50.065Z,91.30
2018-07-25T23:09:18.916Z,91.50
2018-07-25T23:11:47.758Z,91.80
2018-07-25T23:14:16.573Z,91.90
2018-07-25T23:16:45.571Z,91.90
2018-07-25T23:19:14.362Z,91.50
2018-07-25T23:21:43.140Z,91.30
2018-07-25T23:24:11.983Z,91.30
2018-07-25T23:26:40.838Z,91.20
2018-07-25T23:29:09.707Z,91.70
2018-07-25T23:31:38.530Z,92.20
2018-07-25T23:34:07.604Z,91.70
2018-07-25T23:36:36.382Z,91.50
2018-07-25T23:39:07.558Z,91.40
2018-07-25T23:41:36.397Z,91.60
2018-07-25T23:44:05.212Z,91.80
2018-07-25T23:46:34.044Z,91.70
2018-07-25T23:49:02.822Z,91.60
2018-07-25T23:51:31.690Z,91.90
2018-07-25T23:54:00.662Z,92.00
2018-07-25T23:56:29.886Z,92.10
2018-07-25T23:58:58.689Z,92.00
